createdAt,value
2017-08-01T00:00:48.980Z,9.37
2017-08-01T00:03:15.018Z,5.60
2017-08-01T00:05:41.048Z,9.30
2017-08-01T00:08:07.076Z,8.33
2017-08-01T00:10:33.118Z,7.67
2017-08-01T00:12:59.161Z,7.13
2017-08-01T00:15:25.213Z,8.50
2017-08-01T00:17:51.264Z,10.57
2017-08-01T00:20:18.036Z,6.57
2017-08-01T00:22:44.069Z,8.80
2017-08-01T00:25:10.092Z,9.43
2017-08-01T00:27:36.105Z,5.30
2017-08-01T00:30:02.116Z,6.87
2017-08-01T00:32:28.140Z,7.80
2017-08-01T00:34:54.880Z,6.33
2017-08-01T00:37:20.893Z,5.20
2017-08-01T00:39:46.928Z,12.83
2017-08-01T00:42:12.978Z,7.80
2017-08-01T00:44:39.033Z,9.30
2017-08-01T00:47:05.093Z,6.10
2017-08-01T00:49:31.109Z,6.13
2017-08-01T00:51:57.876Z,8.87
2017-08-01T00:54:23.907Z,8.77
2017-08-01T00:56:49.949Z,9.27
2017-08-01T00:59:15.996Z,7.93
2017-08-01T01:01:42.040Z,7.40
2017-08-01T01:04:08.069Z,10.20
2017-08-01T01:06:34.909Z,10.10
2017-08-01T01:09:00.969Z,7.20
2017-08-01T01:11:27.004Z,11.80
2017-08-01T01:13:53.020Z,11.00
2017-08-01T01:16:19.793Z,6.40
2017-08-01T01:18:45.837Z,10.17
2017-08-01T01:21:11.864Z,6.27
2017-08-01T01:23:38.648Z,12.00
2017-08-01T01:26:04.725Z,9.03
2017-08-01T01:28:30.756Z,7.20
2017-08-01T01:30:56.773Z,10.40
2017-08-01T01:33:22.804Z,7.47
2017-08-01T01:35:48.832Z,15.57
2017-08-01T01:38:14.873Z,11.17
2017-08-01T01:40:40.901Z,7.87
2017-08-01T01:43:06.941Z,6.03
2017-08-01T01:45:32.968Z,8.93
2017-08-01T01:47:59.733Z,9.97
2017-08-01T01:50:25.780Z,8.57
2017-08-01T01:52:51.805Z,6.60
2017-08-01T01:55:17.837Z,9.43
2017-08-01T01:57:43.869Z,6.17
2017-08-01T02:00:09.917Z,6.73
2017-08-01T02:02:35.957Z,9.00
2017-08-01T02:05:01.997Z,9.03
2017-08-01T02:07:28.028Z,6.97
2017-08-01T02:09:54.069Z,9.57
2017-08-01T02:12:20.094Z,10.13
2017-08-01T02:14:46.212Z,5.17
2017-08-01T02:17:12.248Z,10.50
2017-08-01T02:19:38.289Z,7.97
2017-08-01T02:22:04.313Z,6.97
2017-08-01T02:24:30.324Z,6.07
2017-08-01T02:26:56.872Z,12.60
2017-08-01T02:29:23.617Z,4.43
2017-08-01T02:31:49.637Z,7.00
2017-08-01T02:34:15.661Z,7.13
2017-08-01T02:36:41.680Z,9.50
2017-08-01T02:39:07.704Z,9.77
2017-08-01T02:41:33.732Z,5.73
2017-08-01T02:44:00.490Z,6.70
2017-08-01T02:46:26.513Z,9.30
2017-08-01T02:48:52.528Z,6.33
2017-08-01T02:51:18.553Z,4.10
2017-08-01T02:53:44.565Z,5.83
2017-08-01T02:56:10.578Z,6.63
2017-08-01T02:58:36.592Z,4.77
2017-08-01T03:01:02.600Z,4.80
2017-08-01T03:03:29.361Z,6.43
2017-08-01T03:05:55.377Z,7.93
2017-08-01T03:08:21.383Z,14.10
2017-08-01T03:10:47.388Z,4.70
2017-08-01T03:13:13.422Z,4.67
2017-08-01T03:15:39.432Z,5.20
2017-08-01T03:18:05.453Z,6.57
2017-08-01T03:20:31.468Z,12.60
2017-08-01T03:22:57.542Z,5.63
2017-08-01T03:25:23.605Z,4.73
2017-08-01T03:27:50.374Z,5.67
2017-08-01T03:30:16.405Z,8.30
2017-08-01T03:32:42.459Z,10.03
2017-08-01T03:35:08.497Z,6.03
2017-08-01T03:37:34.517Z,10.20
2017-08-01T03:40:00.569Z,7.37
2017-08-01T03:42:26.693Z,4.87
2017-08-01T03:44:52.712Z,8.60
2017-08-01T03:47:18.732Z,8.80
2017-08-01T03:49:44.813Z,6.83
2017-08-01T03:52:10.901Z,7.23
2017-08-01T03:54:36.960Z,6.93
2017-08-01T03:57:03.036Z,4.80
2017-08-01T03:59:29.800Z,6.33
2017-08-01T04:01:55.837Z,6.07
2017-08-01T04:04:21.861Z,5.87
2017-08-01T04:06:47.892Z,11.07
2017-08-01T04:09:14.692Z,4.30
2017-08-01T04:11:40.712Z,5.53
2017-08-01T04:14:06.741Z,4.87
2017-08-01T04:16:33.505Z,6.10
2017-08-01T04:18:59.526Z,5.13
2017-08-01T04:21:25.569Z,5.40
2017-08-01T04:23:51.587Z,9.03
2017-08-01T04:26:17.602Z,6.10
2017-08-01T04:28:43.614Z,8.47
2017-08-01T04:31:09.655Z,5.60
2017-08-01T04:33:35.662Z,12.17
2017-08-01T04:36:01.669Z,5.80
2017-08-01T04:38:27.684Z,5.83
2017-08-01T04:40:53.694Z,8.33
2017-08-01T04:43:19.715Z,11.33
2017-08-01T04:45:45.727Z,7.87
2017-08-01T04:48:11.751Z,6.93
2017-08-01T04:50:37.764Z,11.23
2017-08-01T04:53:03.789Z,8.57
2017-08-01T04:55:30.550Z,10.43
2017-08-01T04:57:56.569Z,7.10
2017-08-01T05:00:22.592Z,5.17
2017-08-01T05:02:48.601Z,5.53
2017-08-01T05:05:14.624Z,7.90
2017-08-01T05:07:40.649Z,8.50
2017-08-01T05:10:06.682Z,5.93
2017-08-01T05:12:32.693Z,8.30
2017-08-01T05:14:58.731Z,6.37
2017-08-01T05:17:25.529Z,7.20
2017-08-01T05:19:51.555Z,10.50
2017-08-01T05:22:17.565Z,6.93
2017-08-01T05:24:43.601Z,11.70
2017-08-01T05:27:09.642Z,9.70
2017-08-01T05:29:36.456Z,6.57
2017-08-01T05:32:03.241Z,6.47
2017-08-01T05:34:29.287Z,15.93
2017-08-01T05:36:55.421Z,9.87
2017-08-01T05:39:21.457Z,13.30
2017-08-01T05:41:47.493Z,10.23
2017-08-01T05:44:13.521Z,12.60
2017-08-01T05:46:40.388Z,15.40
2017-08-01T05:49:06.408Z,10.47
2017-08-01T05:51:32.457Z,9.07
2017-08-01T05:53:58.508Z,9.37
2017-08-01T05:56:24.557Z,11.23
2017-08-01T05:58:50.580Z,7.10
2017-08-01T06:01:16.641Z,10.63
2017-08-01T06:03:42.677Z,11.00
2017-08-01T06:06:08.717Z,10.40
2017-08-01T06:08:35.513Z,8.60
2017-08-01T06:11:01.572Z,10.67
2017-08-01T06:13:28.357Z,8.70
2017-08-01T06:15:54.388Z,11.37
2017-08-01T06:18:20.445Z,8.30
2017-08-01T06:20:46.476Z,6.63
2017-08-01T06:23:19.657Z,10.63
2017-08-01T06:25:45.697Z,8.03
2017-08-01T06:28:11.723Z,6.20
2017-08-01T06:30:38.478Z,11.03
2017-08-01T06:33:04.544Z,6.03
2017-08-01T06:35:30.557Z,9.60
2017-08-01T06:37:56.765Z,15.30
2017-08-01T06:40:22.788Z,15.07
2017-08-01T06:42:48.821Z,7.30
2017-08-01T06:45:14.850Z,15.00
2017-08-01T06:47:40.884Z,12.80
2017-08-01T06:50:06.925Z,13.13
2017-08-01T06:52:33.681Z,10.23
2017-08-01T06:55:06.745Z,7.77
2017-08-01T06:57:32.785Z,12.70
2017-08-01T06:59:58.809Z,4.73
2017-08-01T07:02:24.849Z,6.40
2017-08-01T07:04:50.876Z,6.00
2017-08-01T07:07:16.881Z,9.63
2017-08-01T07:09:42.897Z,5.23
2017-08-01T07:12:08.926Z,9.00
2017-08-01T07:14:35.093Z,5.93
2017-08-01T07:17:01.113Z,9.60
2017-08-01T07:19:27.120Z,10.53
2017-08-01T07:21:53.160Z,5.13
2017-08-01T07:24:19.169Z,7.20
2017-08-01T07:26:45.213Z,4.10
2017-08-01T07:29:11.238Z,9.13
2017-08-01T07:31:37.996Z,7.90
2017-08-01T07:34:04.019Z,9.67
2017-08-01T07:36:30.054Z,5.47
2017-08-01T07:38:56.100Z,18.27
2017-08-01T07:41:22.121Z,10.40
2017-08-01T07:43:48.225Z,10.00
2017-08-01T07:46:14.257Z,12.97
2017-08-01T07:48:40.281Z,6.97
2017-08-01T07:51:06.289Z,6.23
2017-08-01T07:53:32.311Z,4.10
2017-08-01T07:55:58.333Z,5.90
2017-08-01T07:58:24.365Z,4.40
2017-08-01T08:00:51.124Z,7.77
2017-08-01T08:03:17.154Z,4.60
2017-08-01T08:05:43.941Z,6.33
2017-08-01T08:08:10.072Z,10.63
2017-08-01T08:10:36.091Z,11.00
2017-08-01T08:13:02.120Z,9.00
2017-08-01T08:15:28.133Z,12.47
2017-08-01T08:17:54.156Z,4.87
2017-08-01T08:20:20.177Z,5.20
2017-08-01T08:22:46.186Z,5.67
2017-08-01T08:25:12.977Z,7.00
2017-08-01T08:27:39.004Z,4.77
2017-08-01T08:30:05.773Z,5.87
2017-08-01T08:32:31.826Z,8.80
2017-08-01T08:34:57.866Z,14.03
2017-08-01T08:37:23.901Z,5.30
2017-08-01T08:39:49.921Z,9.50
2017-08-01T08:42:15.964Z,4.03
2017-08-01T08:44:42.750Z,5.20
2017-08-01T08:47:08.789Z,3.90
2017-08-01T08:49:34.817Z,3.57
2017-08-01T08:52:01.596Z,8.73
2017-08-01T08:54:27.633Z,4.60
2017-08-01T08:56:53.664Z,5.80
2017-08-01T08:59:19.688Z,8.43
2017-08-01T09:01:45.717Z,4.77
2017-08-01T09:04:11.757Z,4.43
2017-08-01T09:06:39.548Z,5.27
2017-08-01T09:09:07.357Z,3.90
2017-08-01T09:11:35.157Z,3.40
2017-08-01T09:14:02.961Z,11.57
2017-08-01T09:16:30.760Z,4.00
2017-08-01T09:18:58.568Z,4.00
2017-08-01T09:21:26.386Z,5.43
2017-08-01T09:23:54.190Z,5.90
2017-08-01T09:26:21.985Z,4.83
2017-08-01T09:28:49.797Z,9.53
2017-08-01T09:31:17.608Z,5.10
2017-08-01T09:33:45.408Z,3.40
2017-08-01T09:36:13.218Z,3.40
2017-08-01T09:38:41.063Z,3.50
2017-08-01T09:41:08.863Z,4.77
2017-08-01T09:43:34.921Z,5.40
2017-08-01T09:46:02.721Z,7.83
2017-08-01T09:48:30.504Z,7.37
2017-08-01T09:50:58.306Z,4.07
2017-08-01T09:53:26.112Z,5.13
2017-08-01T09:55:52.137Z,14.10
2017-08-01T09:58:18.172Z,3.13
2017-08-01T10:00:44.945Z,9.07
2017-08-01T10:03:10.976Z,7.27
2017-08-01T10:05:37.046Z,7.47
2017-08-01T10:08:03.056Z,3.40
2017-08-01T10:10:29.117Z,10.50
2017-08-01T10:12:55.884Z,6.10
2017-08-01T10:15:21.905Z,5.50
2017-08-01T10:17:47.944Z,5.33
2017-08-01T10:20:13.985Z,4.20
2017-08-01T10:22:40.032Z,5.27
2017-08-01T10:25:06.059Z,5.80
2017-08-01T10:27:32.076Z,7.23
2017-08-01T10:29:58.090Z,3.97
2017-08-01T10:32:24.116Z,5.67
2017-08-01T10:34:50.125Z,3.87
2017-08-01T10:37:16.153Z,6.63
2017-08-01T10:39:42.900Z,4.60
2017-08-01T10:42:08.937Z,6.03
2017-08-01T10:44:34.992Z,5.10
2017-08-01T10:47:01.002Z,4.50
2017-08-01T10:49:27.800Z,6.17
2017-08-01T10:51:53.824Z,4.60
2017-08-01T10:54:20.594Z,3.40
2017-08-01T10:56:46.601Z,2.83
2017-08-01T10:59:12.616Z,3.63
2017-08-01T11:01:38.617Z,10.20
2017-08-01T11:04:04.653Z,7.47
2017-08-01T11:06:30.693Z,7.57
2017-08-01T11:08:57.450Z,6.00
2017-08-01T11:11:23.469Z,13.63
2017-08-01T11:13:49.476Z,6.40
2017-08-01T11:16:15.513Z,6.53
2017-08-01T11:18:41.540Z,4.47
2017-08-01T11:21:07.553Z,5.77
2017-08-01T11:23:33.586Z,7.63
2017-08-01T11:25:59.612Z,6.93
2017-08-01T11:28:25.612Z,5.33
2017-08-01T11:30:51.639Z,5.13
2017-08-01T11:33:17.672Z,5.63
2017-08-01T11:35:43.701Z,5.23
2017-08-01T11:38:09.712Z,16.97
2017-08-01T11:40:36.464Z,6.53
2017-08-01T11:43:02.482Z,3.80
2017-08-01T11:45:28.497Z,5.00
2017-08-01T11:47:54.537Z,9.77
2017-08-01T11:50:20.545Z,8.37
2017-08-01T11:52:46.581Z,6.07
2017-08-01T11:55:13.342Z,7.30
2017-08-01T11:57:39.382Z,3.80
2017-08-01T12:00:05.413Z,6.90
2017-08-01T12:02:31.452Z,11.33
2017-08-01T12:04:57.493Z,5.40
2017-08-01T12:07:23.509Z,4.07
2017-08-01T12:09:49.517Z,11.63
2017-08-01T12:12:15.530Z,7.37
2017-08-01T12:14:41.554Z,10.50
2017-08-01T12:17:07.565Z,9.40
2017-08-01T12:19:33.575Z,5.17
2017-08-01T12:21:59.589Z,7.63
2017-08-01T12:24:25.651Z,5.37
2017-08-01T12:26:51.705Z,8.50
2017-08-01T12:29:17.823Z,6.43
2017-08-01T12:31:43.921Z,9.57
2017-08-01T12:34:09.945Z,5.90
2017-08-01T12:36:35.969Z,9.53
2017-08-01T12:39:01.989Z,8.40
2017-08-01T12:41:28.056Z,5.90
2017-08-01T12:43:54.088Z,4.80
2017-08-01T12:46:20.154Z,6.90
2017-08-01T12:48:46.176Z,12.83
2017-08-01T12:51:12.193Z,7.53
2017-08-01T12:53:38.213Z,6.17
2017-08-01T12:56:04.256Z,7.20
2017-08-01T12:58:30.272Z,7.57
2017-08-01T13:00:56.293Z,6.30
2017-08-01T13:03:22.318Z,6.10
2017-08-01T13:05:48.385Z,9.53
2017-08-01T13:08:14.410Z,10.40
2017-08-01T13:10:40.435Z,14.20
2017-08-01T13:13:06.469Z,10.00
2017-08-01T13:15:32.501Z,10.97
2017-08-01T13:17:58.536Z,8.07
2017-08-01T13:20:24.553Z,9.20
2017-08-01T13:22:50.584Z,9.77
2017-08-01T13:25:16.625Z,8.47
2017-08-01T13:27:42.644Z,9.33
2017-08-01T13:30:09.389Z,8.13
2017-08-01T13:32:35.408Z,15.13
2017-08-01T13:35:01.435Z,10.03
2017-08-01T13:37:27.477Z,13.00
2017-08-01T13:39:53.492Z,12.93
2017-08-01T13:42:19.510Z,11.43
2017-08-01T13:44:46.257Z,13.23
2017-08-01T13:47:12.273Z,8.57
2017-08-01T13:49:38.283Z,10.37
2017-08-01T13:52:04.326Z,15.73
2017-08-01T13:54:30.336Z,13.40
2017-08-01T13:56:56.353Z,8.90
2017-08-01T13:59:22.377Z,8.10
2017-08-01T14:01:49.144Z,10.93
2017-08-01T14:04:15.158Z,7.00
2017-08-01T14:06:41.180Z,8.53
2017-08-01T14:09:07.193Z,10.17
2017-08-01T14:11:33.202Z,7.23
2017-08-01T14:13:59.245Z,6.87
2017-08-01T14:16:25.253Z,12.90
2017-08-01T14:18:51.257Z,9.27
2017-08-01T14:21:17.274Z,10.90
2017-08-01T14:23:43.281Z,16.47
2017-08-01T14:26:10.303Z,11.13
2017-08-01T14:28:36.333Z,9.53
2017-08-01T14:31:02.420Z,8.83
2017-08-01T14:33:29.189Z,19.40
2017-08-01T14:35:55.208Z,10.70
2017-08-01T14:38:21.245Z,9.70
2017-08-01T14:40:47.289Z,7.20
2017-08-01T14:43:13.346Z,19.37
2017-08-01T14:45:39.392Z,7.83
2017-08-01T14:48:06.177Z,10.80
2017-08-01T14:50:32.205Z,10.20
2017-08-01T14:52:58.236Z,9.10
2017-08-01T14:55:24.268Z,12.30
2017-08-01T14:57:50.306Z,15.70
2017-08-01T15:00:16.345Z,7.20
2017-08-01T15:02:43.137Z,6.00
2017-08-01T15:05:09.181Z,10.53
2017-08-01T15:07:35.242Z,5.93
2017-08-01T15:10:01.273Z,10.20
2017-08-01T15:12:27.317Z,6.87
2017-08-01T15:14:54.089Z,8.40
2017-08-01T15:17:20.113Z,5.87
2017-08-01T15:19:46.149Z,12.93
2017-08-01T15:22:12.190Z,8.70
2017-08-01T15:24:38.229Z,6.47
2017-08-01T15:27:04.258Z,8.80
2017-08-01T15:29:30.278Z,7.23
2017-08-01T15:31:56.298Z,10.20
2017-08-01T15:34:22.330Z,5.40
2017-08-01T15:36:48.348Z,9.73
2017-08-01T15:39:14.387Z,7.63
2017-08-01T15:41:40.418Z,7.00
2017-08-01T15:44:06.457Z,6.87
2017-08-01T15:46:33.213Z,6.97
2017-08-01T15:48:59.246Z,6.37
2017-08-01T15:51:25.256Z,7.10
2017-08-01T15:53:58.934Z,6.83
2017-08-01T15:56:24.953Z,5.93
2017-08-01T15:58:50.993Z,10.30
2017-08-01T16:01:17.006Z,7.37
2017-08-01T16:03:43.017Z,8.37
2017-08-01T16:06:09.028Z,7.30
2017-08-01T16:08:35.781Z,11.73
2017-08-01T16:11:01.818Z,10.03
2017-08-01T16:13:27.837Z,10.13
2017-08-01T16:15:53.852Z,7.73
2017-08-01T16:18:19.869Z,10.43
2017-08-01T16:20:45.885Z,6.40
2017-08-01T16:23:12.633Z,8.70
2017-08-01T16:25:38.692Z,7.70
2017-08-01T16:28:04.720Z,7.13
2017-08-01T16:30:30.755Z,13.47
2017-08-01T16:32:57.518Z,5.60
2017-08-01T16:35:23.541Z,8.00
2017-08-01T16:37:49.604Z,8.50
2017-08-01T16:40:15.644Z,9.57
2017-08-01T16:42:41.711Z,7.60
2017-08-01T16:45:08.486Z,17.67
2017-08-01T16:47:34.533Z,7.10
2017-08-01T16:50:00.556Z,7.43
2017-08-01T16:52:27.338Z,7.30
2017-08-01T16:54:53.365Z,8.60
2017-08-01T16:57:19.556Z,13.57
2017-08-01T16:59:45.594Z,8.90
2017-08-01T17:02:12.357Z,7.70
2017-08-01T17:04:38.398Z,9.73
2017-08-01T17:07:04.420Z,13.00
2017-08-01T17:09:30.449Z,8.90
2017-08-01T17:11:57.222Z,11.80
2017-08-01T17:14:23.293Z,11.20
2017-08-01T17:16:49.316Z,7.13
2017-08-01T17:19:15.349Z,8.63
2017-08-01T17:21:41.380Z,7.70
2017-08-01T17:24:07.420Z,14.87
2017-08-01T17:26:34.193Z,10.40
2017-08-01T17:29:00.232Z,9.13
2017-08-01T17:31:26.274Z,11.73
2017-08-01T17:33:52.308Z,11.00
2017-08-01T17:36:18.394Z,10.40
2017-08-01T17:38:44.446Z,9.20
2017-08-01T17:41:10.485Z,12.50
2017-08-01T17:43:36.509Z,9.87
2017-08-01T17:46:03.292Z,9.63
2017-08-01T17:48:29.325Z,9.70
2017-08-01T17:50:55.373Z,11.10
2017-08-01T17:53:21.389Z,22.60
2017-08-01T17:55:47.436Z,20.07
2017-08-01T17:58:13.482Z,22.23
2017-08-01T18:00:39.559Z,8.90
2017-08-01T18:03:05.615Z,18.70
2017-08-01T18:05:32.381Z,12.40
2017-08-01T18:07:58.517Z,12.63
2017-08-01T18:10:24.532Z,10.63
2017-08-01T18:12:51.321Z,12.03
2017-08-01T18:15:17.357Z,11.43
2017-08-01T18:17:43.401Z,8.37
2017-08-01T18:20:10.177Z,11.67
2017-08-01T18:22:36.208Z,8.13
2017-08-01T18:25:02.238Z,11.43
2017-08-01T18:27:29.022Z,13.20
2017-08-01T18:29:55.052Z,9.47
2017-08-01T18:32:21.085Z,8.97
2017-08-01T18:34:47.852Z,10.50
2017-08-01T18:37:13.888Z,10.00
2017-08-01T18:39:39.929Z,8.93
2017-08-01T18:42:05.977Z,10.60
2017-08-01T18:44:32.004Z,9.83
2017-08-01T18:46:58.026Z,18.00
2017-08-01T18:49:24.053Z,19.23
2017-08-01T18:51:50.080Z,14.13
2017-08-01T18:54:16.109Z,12.90
2017-08-01T18:56:42.136Z,11.40
2017-08-01T18:59:08.162Z,13.90
2017-08-01T19:01:35.672Z,18.57
2017-08-01T19:04:01.705Z,11.13
2017-08-01T19:06:27.740Z,11.33
2017-08-01T19:08:53.765Z,12.87
2017-08-01T19:11:20.539Z,10.37
2017-08-01T19:13:46.560Z,13.30
2017-08-01T19:16:12.606Z,16.70
2017-08-01T19:18:38.638Z,11.77
2017-08-01T19:21:04.664Z,16.50
2017-08-01T19:23:30.705Z,9.07
2017-08-01T19:25:56.746Z,12.53
2017-08-01T19:28:22.781Z,14.50
2017-08-01T19:30:50.568Z,11.80
2017-08-01T19:33:18.090Z,13.00
2017-08-01T19:35:44.142Z,13.73
2017-08-01T19:38:10.173Z,14.13
2017-08-01T19:40:36.225Z,13.57
2017-08-01T19:43:02.265Z,15.77
2017-08-01T19:45:29.032Z,22.37
2017-08-01T19:47:55.098Z,18.57
2017-08-01T19:50:21.157Z,20.07
2017-08-01T19:52:47.182Z,18.90
2017-08-01T19:55:13.225Z,24.13
2017-08-01T19:57:39.988Z,23.23
2017-08-01T20:00:06.029Z,22.23
2017-08-01T20:02:32.069Z,27.00
2017-08-01T20:04:58.850Z,25.93
2017-08-01T20:07:24.877Z,27.60
2017-08-01T20:09:50.922Z,33.93
2017-08-01T20:12:16.948Z,36.63
2017-08-01T20:14:42.993Z,39.47
2017-08-01T20:17:09.882Z,41.33
2017-08-01T20:19:35.914Z,45.03
2017-08-01T20:22:01.954Z,43.53
2017-08-01T20:24:27.985Z,48.63
2017-08-01T20:26:54.757Z,57.77
2017-08-01T20:29:20.762Z,53.33
2017-08-01T20:31:46.785Z,54.73
2017-08-01T20:34:12.801Z,50.00
2017-08-01T20:36:38.812Z,55.40
2017-08-01T20:39:04.819Z,55.10
2017-08-01T20:41:30.857Z,47.20
2017-08-01T20:43:57.609Z,64.03
2017-08-01T20:46:23.636Z,56.40
2017-08-01T20:48:49.648Z,55.27
2017-08-01T20:51:15.660Z,47.97
2017-08-01T20:53:41.680Z,54.03
2017-08-01T20:56:07.739Z,54.50
2017-08-01T20:58:34.510Z,48.93
2017-08-01T21:01:00.529Z,61.67
2017-08-01T21:03:26.565Z,52.73
2017-08-01T21:05:52.577Z,44.93
2017-08-01T21:08:18.692Z,47.83
2017-08-01T21:10:45.445Z,51.10
2017-08-01T21:13:11.456Z,49.37
2017-08-01T21:15:37.469Z,57.47
2017-08-01T21:18:03.480Z,48.47
2017-08-01T21:20:36.593Z,45.43
2017-08-01T21:23:02.613Z,39.77
2017-08-01T21:25:28.640Z,42.43
2017-08-01T21:27:55.404Z,45.83
2017-08-01T21:30:21.445Z,51.50
2017-08-01T21:32:54.401Z,40.70
2017-08-01T21:35:20.420Z,35.40
2017-08-01T21:37:46.433Z,37.80
2017-08-01T21:40:12.453Z,40.53
2017-08-01T21:42:38.462Z,40.33
2017-08-01T21:45:04.486Z,52.03
2017-08-01T21:47:31.239Z,38.80
2017-08-01T21:49:57.265Z,44.33
2017-08-01T21:52:23.287Z,40.03
2017-08-01T21:54:49.313Z,36.57
2017-08-01T21:57:15.320Z,40.87
2017-08-01T21:59:41.340Z,41.70
2017-08-01T22:02:07.365Z,44.33
2017-08-01T22:04:34.145Z,46.47
2017-08-01T22:07:00.178Z,35.27
2017-08-01T22:09:26.954Z,45.40
2017-08-01T22:11:52.976Z,40.40
2017-08-01T22:14:25.908Z,36.47
2017-08-01T22:16:51.946Z,36.97
2017-08-01T22:19:17.953Z,44.17
2017-08-01T22:21:43.969Z,40.20
2017-08-01T22:24:09.993Z,37.93
2017-08-01T22:26:36.029Z,37.90
2017-08-01T22:29:02.060Z,42.67
2017-08-01T22:31:28.089Z,50.93
2017-08-01T22:33:54.113Z,60.63
2017-08-01T22:36:20.152Z,37.23
2017-08-01T22:38:46.217Z,41.90
2017-08-01T22:41:12.257Z,39.70
2017-08-01T22:43:38.297Z,41.40
2017-08-01T22:46:05.065Z,39.53
2017-08-01T22:48:31.128Z,33.20
2017-08-01T22:50:57.901Z,29.67
2017-08-01T22:53:23.932Z,38.13
2017-08-01T22:55:49.984Z,29.90
2017-08-01T22:58:23.063Z,36.13
2017-08-01T23:00:49.105Z,36.60
2017-08-01T23:03:15.132Z,47.97
2017-08-01T23:05:41.169Z,35.47
2017-08-01T23:08:07.946Z,33.97
2017-08-01T23:10:33.985Z,29.60
2017-08-01T23:13:00.026Z,32.10
2017-08-01T23:15:26.792Z,28.77
2017-08-01T23:17:52.828Z,27.27
2017-08-01T23:20:18.868Z,35.60
2017-08-01T23:22:44.897Z,26.57
2017-08-01T23:25:10.962Z,26.50
2017-08-01T23:27:37.777Z,41.30
2017-08-01T23:30:03.789Z,22.10
2017-08-01T23:32:29.809Z,25.73
2017-08-01T23:34:55.821Z,30.17
2017-08-01T23:37:21.848Z,28.27
2017-08-01T23:39:48.602Z,27.07
2017-08-01T23:42:14.638Z,20.23
2017-08-01T23:44:40.656Z,29.93
2017-08-01T23:47:13.581Z,33.73
2017-08-01T23:49:39.622Z,32.20
2017-08-01T23:52:05.681Z,22.10
2017-08-01T23:54:31.704Z,27.63
2017-08-01T23:56:57.721Z,29.80
2017-08-01T23:59:23.729Z,30.33
